sensor_id;sensor_type;location;lat;lon;timestamp;P1;durP1;ratioP1;P2;durP2;ratioP2
24357;SDS011;13668;52.154;5.580;2023-03-17T00:00:07;3.80;;;2.80;;
24357;SDS011;13668;52.154;5.580;2023-03-17T00:02:34;4.85;;;3.25;;
24357;SDS011;13668;52.154;5.580;2023-03-17T00:05:00;3.63;;;3.20;;
24357;SDS011;13668;52.154;5.580;2023-03-17T00:07:27;3.85;;;3.17;;
24357;SDS011;13668;52.154;5.580;2023-03-17T00:09:53;5.93;;;3.03;;
24357;SDS011;13668;52.154;5.580;2023-03-17T00:12:20;4.13;;;3.28;;
24357;SDS011;13668;52.154;5.580;2023-03-17T00:14:46;4.90;;;2.92;;
24357;SDS011;13668;52.154;5.580;2023-03-17T00:17:12;4.38;;;3.47;;
24357;SDS011;13668;52.154;5.580;2023-03-17T00:19:39;6.05;;;3.95;;
24357;SDS011;13668;52.154;5.580;2023-03-17T00:22:08;3.75;;;3.22;;
24357;SDS011;13668;52.154;5.580;2023-03-17T00:24:37;5.25;;;3.08;;
24357;SDS011;13668;52.154;5.580;2023-03-17T00:27:08;4.30;;;3.20;;
24357;SDS011;13668;52.154;5.580;2023-03-17T00:29:34;4.00;;;3.28;;
24357;SDS011;13668;52.154;5.580;2023-03-17T00:32:00;4.68;;;2.80;;
24357;SDS011;13668;52.154;5.580;2023-03-17T00:34:26;5.93;;;3.40;;
24357;SDS011;13668;52.154;5.580;2023-03-17T00:36:53;4.45;;;3.08;;
24357;SDS011;13668;52.154;5.580;2023-03-17T00:39:20;4.90;;;2.97;;
24357;SDS011;13668;52.154;5.580;2023-03-17T00:41:48;3.45;;;3.15;;
24357;SDS011;13668;52.154;5.580;2023-03-17T00:44:14;4.63;;;3.25;;
24357;SDS011;13668;52.154;5.580;2023-03-17T00:46:40;6.07;;;3.60;;
24357;SDS011;13668;52.154;5.580;2023-03-17T00:49:19;4.43;;;2.97;;
24357;SDS011;13668;52.154;5.580;2023-03-17T00:51:45;4.07;;;2.97;;
24357;SDS011;13668;52.154;5.580;2023-03-17T00:54:12;3.83;;;3.10;;
24357;SDS011;13668;52.154;5.580;2023-03-17T00:56:38;3.95;;;3.10;;
24357;SDS011;13668;52.154;5.580;2023-03-17T00:59:11;3.58;;;3.10;;
24357;SDS011;13668;52.154;5.580;2023-03-17T01:01:40;3.40;;;2.85;;
24357;SDS011;13668;52.154;5.580;2023-03-17T01:04:08;4.75;;;3.20;;
24357;SDS011;13668;52.154;5.580;2023-03-17T01:06:34;4.75;;;3.13;;
24357;SDS011;13668;52.154;5.580;2023-03-17T01:09:00;3.85;;;3.15;;
24357;SDS011;13668;52.154;5.580;2023-03-17T01:11:27;3.88;;;3.10;;
24357;SDS011;13668;52.154;5.580;2023-03-17T01:13:53;4.28;;;2.70;;
24357;SDS011;13668;52.154;5.580;2023-03-17T01:16:20;2.88;;;2.67;;
24357;SDS011;13668;52.154;5.580;2023-03-17T01:18:46;3.40;;;3.05;;
24357;SDS011;13668;52.154;5.580;2023-03-17T01:21:13;4.00;;;2.67;;
24357;SDS011;13668;52.154;5.580;2023-03-17T01:23:39;3.53;;;2.95;;
24357;SDS011;13668;52.154;5.580;2023-03-17T01:26:06;2.80;;;2.60;;
24357;SDS011;13668;52.154;5.580;2023-03-17T01:28:32;3.10;;;2.85;;
24357;SDS011;13668;52.154;5.580;2023-03-17T01:30:58;4.10;;;2.88;;
24357;SDS011;13668;52.154;5.580;2023-03-17T01:33:26;3.83;;;3.10;;
24357;SDS011;13668;52.154;5.580;2023-03-17T01:35:52;4.45;;;2.85;;
24357;SDS011;13668;52.154;5.580;2023-03-17T01:38:18;3.25;;;2.85;;
24357;SDS011;13668;52.154;5.580;2023-03-17T01:40:46;4.10;;;2.97;;
24357;SDS011;13668;52.154;5.580;2023-03-17T01:48:24;3.30;;;2.75;;
24357;SDS011;13668;52.154;5.580;2023-03-17T01:50:51;2.83;;;2.47;;
24357;SDS011;13668;52.154;5.580;2023-03-17T01:53:18;2.75;;;2.47;;
24357;SDS011;13668;52.154;5.580;2023-03-17T01:55:45;4.68;;;2.88;;
24357;SDS011;13668;52.154;5.580;2023-03-17T01:58:11;2.92;;;2.65;;
24357;SDS011;13668;52.154;5.580;2023-03-17T02:00:39;3.75;;;2.70;;
24357;SDS011;13668;52.154;5.580;2023-03-17T02:03:05;2.85;;;2.50;;
24357;SDS011;13668;52.154;5.580;2023-03-17T02:05:31;4.20;;;2.70;;
24357;SDS011;13668;52.154;5.580;2023-03-17T02:07:57;3.70;;;2.67;;
24357;SDS011;13668;52.154;5.580;2023-03-17T02:10:25;3.35;;;2.72;;
24357;SDS011;13668;52.154;5.580;2023-03-17T02:12:52;4.10;;;3.28;;
24357;SDS011;13668;52.154;5.580;2023-03-17T02:15:19;3.30;;;2.58;;
24357;SDS011;13668;52.154;5.580;2023-03-17T02:17:45;6.15;;;3.15;;
24357;SDS011;13668;52.154;5.580;2023-03-17T02:22:46;2.72;;;2.53;;
24357;SDS011;13668;52.154;5.580;2023-03-17T02:25:13;2.92;;;2.40;;
24357;SDS011;13668;52.154;5.580;2023-03-17T02:27:41;5.20;;;2.35;;
24357;SDS011;13668;52.154;5.580;2023-03-17T02:30:09;3.40;;;2.80;;
24357;SDS011;13668;52.154;5.580;2023-03-17T02:32:37;4.28;;;2.50;;
24357;SDS011;13668;52.154;5.580;2023-03-17T02:35:04;2.40;;;2.20;;
24357;SDS011;13668;52.154;5.580;2023-03-17T02:37:31;3.83;;;2.47;;
24357;SDS011;13668;52.154;5.580;2023-03-17T02:39:57;3.47;;;2.45;;
24357;SDS011;13668;52.154;5.580;2023-03-17T02:42:25;3.95;;;2.53;;
24357;SDS011;13668;52.154;5.580;2023-03-17T02:44:51;3.75;;;2.50;;
24357;SDS011;13668;52.154;5.580;2023-03-17T02:47:17;3.30;;;2.60;;
24357;SDS011;13668;52.154;5.580;2023-03-17T02:49:43;6.28;;;2.70;;
24357;SDS011;13668;52.154;5.580;2023-03-17T02:52:09;3.88;;;2.33;;
24357;SDS011;13668;52.154;5.580;2023-03-17T02:54:36;2.40;;;2.20;;
24357;SDS011;13668;52.154;5.580;2023-03-17T02:57:02;2.13;;;1.92;;
24357;SDS011;13668;52.154;5.580;2023-03-17T02:59:28;4.65;;;2.45;;
24357;SDS011;13668;52.154;5.580;2023-03-17T03:01:54;2.97;;;2.47;;
24357;SDS011;13668;52.154;5.580;2023-03-17T03:04:20;2.38;;;2.17;;
24357;SDS011;13668;52.154;5.580;2023-03-17T03:06:46;3.47;;;2.25;;
24357;SDS011;13668;52.154;5.580;2023-03-17T03:09:13;3.33;;;2.45;;
24357;SDS011;13668;52.154;5.580;2023-03-17T03:11:39;3.20;;;2.08;;
24357;SDS011;13668;52.154;5.580;2023-03-17T03:14:05;2.65;;;2.38;;
24357;SDS011;13668;52.154;5.580;2023-03-17T03:16:32;3.40;;;2.17;;
24357;SDS011;13668;52.154;5.580;2023-03-17T03:18:58;2.97;;;2.20;;
24357;SDS011;13668;52.154;5.580;2023-03-17T03:21:24;4.15;;;2.55;;
24357;SDS011;13668;52.154;5.580;2023-03-17T03:23:50;3.20;;;2.22;;
24357;SDS011;13668;52.154;5.580;2023-03-17T03:26:16;2.50;;;1.95;;
24357;SDS011;13668;52.154;5.580;2023-03-17T03:28:42;2.20;;;2.00;;
24357;SDS011;13668;52.154;5.580;2023-03-17T03:31:08;3.60;;;2.25;;
24357;SDS011;13668;52.154;5.580;2023-03-17T03:33:35;3.22;;;2.08;;
24357;SDS011;13668;52.154;5.580;2023-03-17T03:36:01;3.90;;;1.77;;
24357;SDS011;13668;52.154;5.580;2023-03-17T03:38:27;6.70;;;2.88;;
24357;SDS011;13668;52.154;5.580;2023-03-17T03:40:53;3.47;;;2.58;;
24357;SDS011;13668;52.154;5.580;2023-03-17T03:43:19;2.35;;;2.10;;
24357;SDS011;13668;52.154;5.580;2023-03-17T03:45:45;2.65;;;1.73;;
24357;SDS011;13668;52.154;5.580;2023-03-17T03:48:11;2.78;;;2.17;;
24357;SDS011;13668;52.154;5.580;2023-03-17T03:50:37;3.92;;;2.30;;
24357;SDS011;13668;52.154;5.580;2023-03-17T03:53:03;4.35;;;2.53;;
24357;SDS011;13668;52.154;5.580;2023-03-17T03:55:29;2.15;;;1.95;;
24357;SDS011;13668;52.154;5.580;2023-03-17T03:57:56;2.92;;;2.08;;
24357;SDS011;13668;52.154;5.580;2023-03-17T04:00:22;2.70;;;2.45;;
24357;SDS011;13668;52.154;5.580;2023-03-17T04:02:48;6.15;;;2.08;;
24357;SDS011;13668;52.154;5.580;2023-03-17T04:05:14;3.95;;;2.30;;
24357;SDS011;13668;52.154;5.580;2023-03-17T04:07:42;2.35;;;2.00;;
24357;SDS011;13668;52.154;5.580;2023-03-17T04:10:09;7.15;;;2.78;;
24357;SDS011;13668;52.154;5.580;2023-03-17T04:12:35;4.50;;;2.40;;
24357;SDS011;13668;52.154;5.580;2023-03-17T04:15:01;2.58;;;2.35;;
24357;SDS011;13668;52.154;5.580;2023-03-17T04:17:28;3.33;;;2.10;;
24357;SDS011;13668;52.154;5.580;2023-03-17T04:19:54;3.10;;;2.17;;
24357;SDS011;13668;52.154;5.580;2023-03-17T04:22:21;3.65;;;2.38;;
24357;SDS011;13668;52.154;5.580;2023-03-17T04:24:47;4.95;;;2.13;;
24357;SDS011;13668;52.154;5.580;2023-03-17T04:27:13;2.72;;;2.10;;
24357;SDS011;13668;52.154;5.580;2023-03-17T04:29:39;2.97;;;2.13;;
24357;SDS011;13668;52.154;5.580;2023-03-17T04:32:06;4.53;;;2.35;;
24357;SDS011;13668;52.154;5.580;2023-03-17T04:34:32;2.20;;;2.00;;
24357;SDS011;13668;52.154;5.580;2023-03-17T04:36:58;3.90;;;2.13;;
24357;SDS011;13668;52.154;5.580;2023-03-17T04:39:24;2.95;;;2.67;;
24357;SDS011;13668;52.154;5.580;2023-03-17T04:41:51;3.38;;;2.25;;
24357;SDS011;13668;52.154;5.580;2023-03-17T04:44:17;4.32;;;2.22;;
24357;SDS011;13668;52.154;5.580;2023-03-17T04:46:43;2.63;;;2.42;;
24357;SDS011;13668;52.154;5.580;2023-03-17T04:49:10;3.15;;;2.50;;
24357;SDS011;13668;52.154;5.580;2023-03-17T04:51:36;3.55;;;2.67;;
24357;SDS011;13668;52.154;5.580;2023-03-17T04:54:03;4.15;;;2.25;;
24357;SDS011;13668;52.154;5.580;2023-03-17T04:56:30;2.92;;;2.47;;
24357;SDS011;13668;52.154;5.580;2023-03-17T04:58:56;2.60;;;2.13;;
24357;SDS011;13668;52.154;5.580;2023-03-17T05:01:22;2.70;;;2.35;;
24357;SDS011;13668;52.154;5.580;2023-03-17T05:03:48;2.15;;;1.85;;
24357;SDS011;13668;52.154;5.580;2023-03-17T05:06:14;5.28;;;2.30;;
24357;SDS011;13668;52.154;5.580;2023-03-17T05:08:40;2.45;;;2.25;;
24357;SDS011;13668;52.154;5.580;2023-03-17T05:11:08;3.58;;;2.10;;
24357;SDS011;13668;52.154;5.580;2023-03-17T05:13:35;2.72;;;2.33;;
24357;SDS011;13668;52.154;5.580;2023-03-17T05:16:01;3.58;;;2.35;;
24357;SDS011;13668;52.154;5.580;2023-03-17T05:18:27;3.75;;;2.60;;
24357;SDS011;13668;52.154;5.580;2023-03-17T05:20:53;3.60;;;2.75;;
24357;SDS011;13668;52.154;5.580;2023-03-17T05:23:19;3.08;;;2.78;;
24357;SDS011;13668;52.154;5.580;2023-03-17T05:25:46;3.35;;;2.67;;
24357;SDS011;13668;52.154;5.580;2023-03-17T05:28:12;2.60;;;2.40;;
24357;SDS011;13668;52.154;5.580;2023-03-17T05:30:38;4.55;;;2.70;;
24357;SDS011;13668;52.154;5.580;2023-03-17T05:33:05;3.83;;;2.95;;
24357;SDS011;13668;52.154;5.580;2023-03-17T05:35:31;3.90;;;2.63;;
24357;SDS011;13668;52.154;5.580;2023-03-17T05:37:57;5.03;;;2.92;;
24357;SDS011;13668;52.154;5.580;2023-03-17T05:40:23;5.00;;;2.95;;
24357;SDS011;13668;52.154;5.580;2023-03-17T05:42:49;5.75;;;2.97;;
24357;SDS011;13668;52.154;5.580;2023-03-17T05:45:15;4.53;;;2.67;;
24357;SDS011;13668;52.154;5.580;2023-03-17T05:47:42;3.83;;;2.85;;
24357;SDS011;13668;52.154;5.580;2023-03-17T05:50:09;2.80;;;2.60;;
24357;SDS011;13668;52.154;5.580;2023-03-17T05:52:36;6.07;;;3.15;;
24357;SDS011;13668;52.154;5.580;2023-03-17T05:55:02;6.07;;;3.25;;
24357;SDS011;13668;52.154;5.580;2023-03-17T05:57:28;3.20;;;2.90;;
24357;SDS011;13668;52.154;5.580;2023-03-17T05:59:54;3.28;;;2.95;;
24357;SDS011;13668;52.154;5.580;2023-03-17T06:02:20;2.70;;;2.50;;
24357;SDS011;13668;52.154;5.580;2023-03-17T06:04:46;8.00;;;3.10;;
24357;SDS011;13668;52.154;5.580;2023-03-17T06:07:12;3.25;;;2.75;;
24357;SDS011;13668;52.154;5.580;2023-03-17T06:09:38;4.68;;;3.00;;
24357;SDS011;13668;52.154;5.580;2023-03-17T06:12:05;5.70;;;3.25;;
24357;SDS011;13668;52.154;5.580;2023-03-17T06:14:32;3.38;;;3.08;;
24357;SDS011;13668;52.154;5.580;2023-03-17T06:16:58;4.88;;;3.10;;
24357;SDS011;13668;52.154;5.580;2023-03-17T06:19:24;5.75;;;3.30;;
24357;SDS011;13668;52.154;5.580;2023-03-17T06:21:50;4.40;;;3.20;;
24357;SDS011;13668;52.154;5.580;2023-03-17T06:24:17;3.28;;;2.65;;
24357;SDS011;13668;52.154;5.580;2023-03-17T06:26:43;6.18;;;3.17;;
24357;SDS011;13668;52.154;5.580;2023-03-17T06:29:10;4.35;;;3.70;;
24357;SDS011;13668;52.154;5.580;2023-03-17T06:31:36;7.45;;;2.92;;
24357;SDS011;13668;52.154;5.580;2023-03-17T06:34:08;4.63;;;3.00;;
24357;SDS011;13668;52.154;5.580;2023-03-17T06:36:34;4.72;;;3.05;;
24357;SDS011;13668;52.154;5.580;2023-03-17T06:39:00;5.28;;;3.10;;
24357;SDS011;13668;52.154;5.580;2023-03-17T06:41:26;3.83;;;2.97;;
24357;SDS011;13668;52.154;5.580;2023-03-17T06:43:52;4.68;;;3.78;;
24357;SDS011;13668;52.154;5.580;2023-03-17T06:46:18;4.40;;;3.70;;
24357;SDS011;13668;52.154;5.580;2023-03-17T06:48:44;4.68;;;2.88;;
24357;SDS011;13668;52.154;5.580;2023-03-17T06:51:10;5.82;;;3.05;;
24357;SDS011;13668;52.154;5.580;2023-03-17T06:53:36;4.30;;;2.78;;
24357;SDS011;13668;52.154;5.580;2023-03-17T06:56:02;4.68;;;2.85;;
24357;SDS011;13668;52.154;5.580;2023-03-17T06:58:31;4.97;;;3.40;;
24357;SDS011;13668;52.154;5.580;2023-03-17T07:00:57;5.45;;;3.13;;
24357;SDS011;13668;52.154;5.580;2023-03-17T07:03:24;4.68;;;3.30;;
24357;SDS011;13668;52.154;5.580;2023-03-17T07:05:50;4.03;;;2.88;;
24357;SDS011;13668;52.154;5.580;2023-03-17T07:08:17;5.68;;;3.75;;
24357;SDS011;13668;52.154;5.580;2023-03-17T07:10:43;4.97;;;3.35;;
24357;SDS011;13668;52.154;5.580;2023-03-17T07:13:10;6.63;;;3.13;;
24357;SDS011;13668;52.154;5.580;2023-03-17T07:15:36;6.88;;;2.88;;
24357;SDS011;13668;52.154;5.580;2023-03-17T07:18:02;5.95;;;3.42;;
24357;SDS011;13668;52.154;5.580;2023-03-17T07:20:31;4.45;;;3.10;;
24357;SDS011;13668;52.154;5.580;2023-03-17T07:22:57;5.88;;;3.88;;
24357;SDS011;13668;52.154;5.580;2023-03-17T07:25:23;3.30;;;3.00;;
24357;SDS011;13668;52.154;5.580;2023-03-17T07:27:49;6.95;;;3.33;;
24357;SDS011;13668;52.154;5.580;2023-03-17T07:30:16;4.55;;;2.90;;
24357;SDS011;13668;52.154;5.580;2023-03-17T07:32:43;6.18;;;3.08;;
24357;SDS011;13668;52.154;5.580;2023-03-17T07:35:09;3.15;;;2.80;;
24357;SDS011;13668;52.154;5.580;2023-03-17T07:37:36;5.30;;;3.50;;
24357;SDS011;13668;52.154;5.580;2023-03-17T07:40:02;5.20;;;3.40;;
24357;SDS011;13668;52.154;5.580;2023-03-17T07:42:28;4.30;;;3.47;;
24357;SDS011;13668;52.154;5.580;2023-03-17T07:44:54;4.50;;;3.30;;
24357;SDS011;13668;52.154;5.580;2023-03-17T07:47:20;4.05;;;3.65;;
24357;SDS011;13668;52.154;5.580;2023-03-17T07:49:46;4.22;;;3.30;;
24357;SDS011;13668;52.154;5.580;2023-03-17T07:52:12;6.18;;;3.20;;
24357;SDS011;13668;52.154;5.580;2023-03-17T07:54:38;6.05;;;3.42;;
24357;SDS011;13668;52.154;5.580;2023-03-17T07:57:05;4.55;;;3.15;;
24357;SDS011;13668;52.154;5.580;2023-03-17T07:59:31;4.85;;;3.13;;
24357;SDS011;13668;52.154;5.580;2023-03-17T08:01:57;5.72;;;3.25;;
24357;SDS011;13668;52.154;5.580;2023-03-17T08:04:25;6.07;;;3.13;;
24357;SDS011;13668;52.154;5.580;2023-03-17T08:06:51;4.75;;;4.00;;
24357;SDS011;13668;52.154;5.580;2023-03-17T08:09:18;4.20;;;3.53;;
24357;SDS011;13668;52.154;5.580;2023-03-17T08:11:46;4.95;;;3.15;;
24357;SDS011;13668;52.154;5.580;2023-03-17T08:14:12;4.35;;;3.17;;
24357;SDS011;13668;52.154;5.580;2023-03-17T08:16:38;3.80;;;3.20;;
24357;SDS011;13668;52.154;5.580;2023-03-17T08:19:04;3.63;;;3.17;;
24357;SDS011;13668;52.154;5.580;2023-03-17T08:21:30;5.07;;;2.95;;
24357;SDS011;13668;52.154;5.580;2023-03-17T08:23:56;5.00;;;3.58;;
24357;SDS011;13668;52.154;5.580;2023-03-17T08:26:23;4.15;;;3.58;;
24357;SDS011;13668;52.154;5.580;2023-03-17T08:28:49;6.22;;;3.50;;
24357;SDS011;13668;52.154;5.580;2023-03-17T08:31:16;5.15;;;3.28;;
24357;SDS011;13668;52.154;5.580;2023-03-17T08:33:47;4.00;;;3.55;;
24357;SDS011;13668;52.154;5.580;2023-03-17T08:36:14;4.53;;;3.60;;
24357;SDS011;13668;52.154;5.580;2023-03-17T08:38:40;4.47;;;3.45;;
24357;SDS011;13668;52.154;5.580;2023-03-17T08:41:08;3.47;;;3.17;;
24357;SDS011;13668;52.154;5.580;2023-03-17T08:43:37;4.30;;;2.85;;
24357;SDS011;13668;52.154;5.580;2023-03-17T08:46:08;7.85;;;3.08;;
24357;SDS011;13668;52.154;5.580;2023-03-17T08:48:35;5.72;;;2.97;;
24357;SDS011;13668;52.154;5.580;2023-03-17T08:51:02;4.82;;;3.22;;
24357;SDS011;13668;52.154;5.580;2023-03-17T08:53:28;5.82;;;3.42;;
24357;SDS011;13668;52.154;5.580;2023-03-17T08:55:55;6.13;;;3.00;;
24357;SDS011;13668;52.154;5.580;2023-03-17T08:58:21;4.60;;;3.20;;
24357;SDS011;13668;52.154;5.580;2023-03-17T09:00:47;4.10;;;2.90;;
24357;SDS011;13668;52.154;5.580;2023-03-17T09:03:14;4.57;;;3.33;;
24357;SDS011;13668;52.154;5.580;2023-03-17T09:05:40;3.65;;;2.72;;
24357;SDS011;13668;52.154;5.580;2023-03-17T09:08:07;5.50;;;2.90;;
24357;SDS011;13668;52.154;5.580;2023-03-17T09:10:34;4.03;;;3.42;;
24357;SDS011;13668;52.154;5.580;2023-03-17T09:13:00;4.32;;;3.42;;
24357;SDS011;13668;52.154;5.580;2023-03-17T09:15:30;5.10;;;3.33;;
24357;SDS011;13668;52.154;5.580;2023-03-17T09:17:59;3.72;;;2.92;;
24357;SDS011;13668;52.154;5.580;2023-03-17T09:20:25;4.80;;;3.53;;
24357;SDS011;13668;52.154;5.580;2023-03-17T09:22:51;5.32;;;3.20;;
24357;SDS011;13668;52.154;5.580;2023-03-17T09:25:18;6.68;;;3.50;;
24357;SDS011;13668;52.154;5.580;2023-03-17T09:27:44;8.40;;;3.25;;
24357;SDS011;13668;52.154;5.580;2023-03-17T09:30:10;3.95;;;2.78;;
24357;SDS011;13668;52.154;5.580;2023-03-17T09:32:41;4.50;;;3.45;;
24357;SDS011;13668;52.154;5.580;2023-03-17T09:35:09;4.70;;;2.90;;
24357;SDS011;13668;52.154;5.580;2023-03-17T09:37:35;4.55;;;3.03;;
24357;SDS011;13668;52.154;5.580;2023-03-17T09:40:01;3.40;;;3.10;;
24357;SDS011;13668;52.154;5.580;2023-03-17T09:45:34;6.75;;;3.38;;
24357;SDS011;13668;52.154;5.580;2023-03-17T09:50:26;4.15;;;3.28;;
24357;SDS011;13668;52.154;5.580;2023-03-17T09:52:54;6.22;;;3.83;;
24357;SDS011;13668;52.154;5.580;2023-03-17T09:55:27;5.57;;;4.00;;
24357;SDS011;13668;52.154;5.580;2023-03-17T09:57:55;4.82;;;3.80;;
24357;SDS011;13668;52.154;5.580;2023-03-17T10:00:22;3.80;;;3.17;;
24357;SDS011;13668;52.154;5.580;2023-03-17T10:02:51;6.38;;;3.33;;
24357;SDS011;13668;52.154;5.580;2023-03-17T10:05:30;4.30;;;3.35;;
24357;SDS011;13668;52.154;5.580;2023-03-17T10:08:04;4.47;;;3.95;;
24357;SDS011;13668;52.154;5.580;2023-03-17T10:10:41;5.80;;;4.10;;
24357;SDS011;13668;52.154;5.580;2023-03-17T10:13:27;5.50;;;3.97;;
24357;SDS011;13668;52.154;5.580;2023-03-17T10:16:02;4.75;;;3.85;;
24357;SDS011;13668;52.154;5.580;2023-03-17T10:18:50;5.63;;;4.20;;
24357;SDS011;13668;52.154;5.580;2023-03-17T10:21:19;7.70;;;4.45;;
24357;SDS011;13668;52.154;5.580;2023-03-17T10:23:48;5.30;;;4.18;;
24357;SDS011;13668;52.154;5.580;2023-03-17T10:28:41;7.88;;;4.60;;
24357;SDS011;13668;52.154;5.580;2023-03-17T10:31:17;6.95;;;4.32;;
24357;SDS011;13668;52.154;5.580;2023-03-17T10:33:45;7.22;;;4.15;;
24357;SDS011;13668;52.154;5.580;2023-03-17T10:36:13;8.93;;;4.80;;
24357;SDS011;13668;52.154;5.580;2023-03-17T10:38:39;5.18;;;4.13;;
24357;SDS011;13668;52.154;5.580;2023-03-17T10:41:07;5.95;;;4.07;;
24357;SDS011;13668;52.154;5.580;2023-03-17T10:43:42;4.70;;;3.85;;
24357;SDS011;13668;52.154;5.580;2023-03-17T10:46:16;8.13;;;3.85;;
24357;SDS011;13668;52.154;5.580;2023-03-17T10:48:43;4.97;;;3.50;;
24357;SDS011;13668;52.154;5.580;2023-03-17T10:51:17;7.68;;;4.22;;
24357;SDS011;13668;52.154;5.580;2023-03-17T10:53:45;8.68;;;3.97;;
24357;SDS011;13668;52.154;5.580;2023-03-17T10:56:21;8.43;;;3.40;;
24357;SDS011;13668;52.154;5.580;2023-03-17T10:58:49;4.50;;;3.65;;
24357;SDS011;13668;52.154;5.580;2023-03-17T11:03:47;9.77;;;4.07;;
24357;SDS011;13668;52.154;5.580;2023-03-17T11:06:17;6.50;;;4.38;;
24357;SDS011;13668;52.154;5.580;2023-03-17T11:11:21;4.93;;;3.75;;
24357;SDS011;13668;52.154;5.580;2023-03-17T11:13:47;9.27;;;4.00;;
24357;SDS011;13668;52.154;5.580;2023-03-17T11:18:42;5.85;;;3.80;;
24357;SDS011;13668;52.154;5.580;2023-03-17T11:28:43;7.82;;;4.38;;
24357;SDS011;13668;52.154;5.580;2023-03-17T11:31:13;10.30;;;4.68;;
24357;SDS011;13668;52.154;5.580;2023-03-17T11:36:16;7.00;;;3.95;;
24357;SDS011;13668;52.154;5.580;2023-03-17T11:41:42;6.55;;;3.78;;
24357;SDS011;13668;52.154;5.580;2023-03-17T11:49:39;7.75;;;4.28;;
24357;SDS011;13668;52.154;5.580;2023-03-17T11:52:11;8.65;;;4.35;;
24357;SDS011;13668;52.154;5.580;2023-03-17T11:57:16;6.13;;;4.18;;
24357;SDS011;13668;52.154;5.580;2023-03-17T11:59:52;9.07;;;4.95;;
24357;SDS011;13668;52.154;5.580;2023-03-17T12:02:37;5.20;;;3.60;;
24357;SDS011;13668;52.154;5.580;2023-03-17T12:05:26;7.63;;;4.43;;
24357;SDS011;13668;52.154;5.580;2023-03-17T12:08:01;5.80;;;3.83;;
24357;SDS011;13668;52.154;5.580;2023-03-17T12:10:43;5.05;;;4.00;;
24357;SDS011;13668;52.154;5.580;2023-03-17T12:13:23;10.98;;;3.97;;
24357;SDS011;13668;52.154;5.580;2023-03-17T12:15:59;6.60;;;4.47;;
24357;SDS011;13668;52.154;5.580;2023-03-17T12:21:01;6.25;;;4.60;;
24357;SDS011;13668;52.154;5.580;2023-03-17T12:26:09;5.07;;;4.03;;
24357;SDS011;13668;52.154;5.580;2023-03-17T12:31:12;6.60;;;4.00;;
24357;SDS011;13668;52.154;5.580;2023-03-17T12:36:08;10.55;;;4.60;;
24357;SDS011;13668;52.154;5.580;2023-03-17T12:38:39;5.72;;;4.13;;
24357;SDS011;13668;52.154;5.580;2023-03-17T12:43:58;5.53;;;4.07;;
24357;SDS011;13668;52.154;5.580;2023-03-17T12:51:48;6.03;;;4.60;;
24357;SDS011;13668;52.154;5.580;2023-03-17T12:54:19;5.47;;;3.92;;
24357;SDS011;13668;52.154;5.580;2023-03-17T12:56:46;6.20;;;4.60;;
24357;SDS011;13668;52.154;5.580;2023-03-17T12:59:17;6.72;;;4.90;;
24357;SDS011;13668;52.154;5.580;2023-03-17T13:01:44;5.80;;;4.03;;
24357;SDS011;13668;52.154;5.580;2023-03-17T13:06:44;5.63;;;4.68;;
24357;SDS011;13668;52.154;5.580;2023-03-17T13:09:31;7.50;;;4.85;;
24357;SDS011;13668;52.154;5.580;2023-03-17T13:12:03;5.55;;;4.15;;
24357;SDS011;13668;52.154;5.580;2023-03-17T13:25:12;7.72;;;4.95;;
24357;SDS011;13668;52.154;5.580;2023-03-17T13:30:40;6.93;;;5.25;;
24357;SDS011;13668;52.154;5.580;2023-03-17T13:32:54;7.85;;;5.30;;
24357;SDS011;13668;52.154;5.580;2023-03-17T13:35:21;7.18;;;4.38;;
24357;SDS011;13668;52.154;5.580;2023-03-17T13:45:33;6.72;;;5.38;;
24357;SDS011;13668;52.154;5.580;2023-03-17T13:48:20;7.25;;;5.70;;
24357;SDS011;13668;52.154;5.580;2023-03-17T13:50:47;8.20;;;4.95;;
24357;SDS011;13668;52.154;5.580;2023-03-17T13:53:18;8.68;;;5.10;;
24357;SDS011;13668;52.154;5.580;2023-03-17T13:56:02;9.80;;;5.20;;
24357;SDS011;13668;52.154;5.580;2023-03-17T13:58:33;7.22;;;5.60;;
24357;SDS011;13668;52.154;5.580;2023-03-17T14:01:00;12.77;;;5.30;;
24357;SDS011;13668;52.154;5.580;2023-03-17T14:03:41;6.57;;;4.95;;
24357;SDS011;13668;52.154;5.580;2023-03-17T14:06:09;7.20;;;5.25;;
24357;SDS011;13668;52.154;5.580;2023-03-17T14:08:38;6.13;;;5.05;;
24357;SDS011;13668;52.154;5.580;2023-03-17T14:11:12;8.73;;;5.28;;
24357;SDS011;13668;52.154;5.580;2023-03-17T14:13:42;7.32;;;5.28;;
24357;SDS011;13668;52.154;5.580;2023-03-17T14:18:40;8.25;;;5.70;;
24357;SDS011;13668;52.154;5.580;2023-03-17T14:21:18;8.93;;;5.63;;
24357;SDS011;13668;52.154;5.580;2023-03-17T14:23:54;8.93;;;5.43;;
24357;SDS011;13668;52.154;5.580;2023-03-17T14:26:25;9.10;;;5.10;;
24357;SDS011;13668;52.154;5.580;2023-03-17T14:28:52;8.55;;;5.22;;
24357;SDS011;13668;52.154;5.580;2023-03-17T14:31:22;6.53;;;5.13;;
24357;SDS011;13668;52.154;5.580;2023-03-17T14:33:49;9.77;;;4.95;;
24357;SDS011;13668;52.154;5.580;2023-03-17T14:36:16;5.78;;;4.70;;
24357;SDS011;13668;52.154;5.580;2023-03-17T14:38:46;6.30;;;5.00;;
24357;SDS011;13668;52.154;5.580;2023-03-17T14:43:39;9.38;;;6.00;;
24357;SDS011;13668;52.154;5.580;2023-03-17T14:46:06;9.75;;;5.53;;
24357;SDS011;13668;52.154;5.580;2023-03-17T14:48:36;6.22;;;5.00;;
24357;SDS011;13668;52.154;5.580;2023-03-17T14:51:03;9.57;;;5.88;;
24357;SDS011;13668;52.154;5.580;2023-03-17T14:53:32;7.80;;;5.20;;
24357;SDS011;13668;52.154;5.580;2023-03-17T14:55:58;7.35;;;5.30;;
24357;SDS011;13668;52.154;5.580;2023-03-17T14:58:29;10.02;;;5.90;;
24357;SDS011;13668;52.154;5.580;2023-03-17T15:01:01;8.38;;;6.07;;
24357;SDS011;13668;52.154;5.580;2023-03-17T15:03:28;8.27;;;6.28;;
24357;SDS011;13668;52.154;5.580;2023-03-17T15:08:48;8.63;;;5.03;;
24357;SDS011;13668;52.154;5.580;2023-03-17T15:11:15;8.15;;;5.50;;
24357;SDS011;13668;52.154;5.580;2023-03-17T15:13:42;7.05;;;4.80;;
24357;SDS011;13668;52.154;5.580;2023-03-17T15:23:53;6.05;;;4.85;;
24357;SDS011;13668;52.154;5.580;2023-03-17T15:26:21;6.32;;;4.95;;
24357;SDS011;13668;52.154;5.580;2023-03-17T15:28:47;6.85;;;5.10;;
24357;SDS011;13668;52.154;5.580;2023-03-17T15:31:13;10.52;;;5.28;;
24357;SDS011;13668;52.154;5.580;2023-03-17T15:33:40;8.05;;;6.00;;
24357;SDS011;13668;52.154;5.580;2023-03-17T15:36:07;7.47;;;4.90;;
24357;SDS011;13668;52.154;5.580;2023-03-17T15:38:39;6.97;;;5.15;;
24357;SDS011;13668;52.154;5.580;2023-03-17T15:41:05;8.05;;;5.90;;
24357;SDS011;13668;52.154;5.580;2023-03-17T15:43:31;7.78;;;5.85;;
24357;SDS011;13668;52.154;5.580;2023-03-17T15:45:59;9.73;;;5.20;;
24357;SDS011;13668;52.154;5.580;2023-03-17T15:48:26;9.38;;;6.38;;
24357;SDS011;13668;52.154;5.580;2023-03-17T15:50:53;11.38;;;6.22;;
24357;SDS011;13668;52.154;5.580;2023-03-17T15:53:20;9.07;;;5.78;;
24357;SDS011;13668;52.154;5.580;2023-03-17T15:55:46;10.85;;;5.20;;
24357;SDS011;13668;52.154;5.580;2023-03-17T15:58:13;9.88;;;5.47;;
24357;SDS011;13668;52.154;5.580;2023-03-17T16:00:39;9.10;;;5.93;;
24357;SDS011;13668;52.154;5.580;2023-03-17T16:03:14;8.02;;;5.63;;
24357;SDS011;13668;52.154;5.580;2023-03-17T16:05:41;9.07;;;5.72;;
24357;SDS011;13668;52.154;5.580;2023-03-17T16:08:11;8.70;;;5.60;;
24357;SDS011;13668;52.154;5.580;2023-03-17T16:10:38;9.60;;;5.47;;
24357;SDS011;13668;52.154;5.580;2023-03-17T16:13:04;10.43;;;5.90;;
24357;SDS011;13668;52.154;5.580;2023-03-17T16:15:31;6.25;;;5.35;;
24357;SDS011;13668;52.154;5.580;2023-03-17T16:18:06;7.50;;;5.68;;
24357;SDS011;13668;52.154;5.580;2023-03-17T16:20:41;10.02;;;6.85;;
24357;SDS011;13668;52.154;5.580;2023-03-17T16:23:11;7.78;;;5.65;;
24357;SDS011;13668;52.154;5.580;2023-03-17T16:25:39;9.07;;;5.78;;
24357;SDS011;13668;52.154;5.580;2023-03-17T16:30:43;10.43;;;6.50;;
24357;SDS011;13668;52.154;5.580;2023-03-17T16:33:23;10.38;;;6.53;;
24357;SDS011;13668;52.154;5.580;2023-03-17T16:35:50;8.13;;;6.20;;